Time;durP1;ratioP1;P1;durP2;ratioP2;P2;SDS_P1;SDS_P2;PMS_P1;PMS_P2;Temp;Humidity;BMP_temperature;BMP_pressure;BME280_temperature;BME280_humidity;BME280_pressure;Samples;Min_cycle;Max_cycle;Signal;HPM_P1;HPM_P2
2022/12/19 06:30:30;;;;;;;19.25;11.10;;;;;;;-5.70;100.00;102438.76;1824069;75;22405;-47
2022/12/19 06:32:57;;;;;;;14.85;9.08;;;;;;;-5.69;100.00;102449.86;1795963;78;20983;-47
2022/12/19 06:35:24;;;;;;;13.75;7.67;;;;;;;-5.66;100.00;102443.80;1797191;78;21099;-47
2022/12/19 06:37:51;;;;;;;17.50;8.88;;;;;;;-5.62;100.00;102449.74;1789907;78;20968;-48
2022/12/19 06:42:21;;;;;;;14.38;7.95;;;;;;;-5.59;99.75;102443.65;1787740;78;21123;-46
2022/12/19 06:42:56;;;;;;;17.48;9.45;;;;;;;-5.58;99.01;102442.89;1784722;78;20984;-38
2022/12/19 06:45:26;;;;;;;15.90;7.00;;;;;;;-5.58;97.48;102450.92;1726526;78;21063;-47
2022/12/19 06:47:55;;;;;;;18.23;8.15;;;;;;;-5.65;96.59;102466.90;1753562;77;20993;-47
2022/12/19 06:50:27;;;;;;;19.65;10.05;;;;;;;-5.75;95.29;102480.75;1788638;78;21072;-46
2022/12/19 06:53:09;;;;;;;19.57;9.00;;;;;;;-5.87;95.56;102490.11;1786862;78;21019;-38
2022/12/19 06:55:40;;;;;;;12.55;7.22;;;;;;;-5.94;95.34;102504.83;1784035;78;21381;-44
2022/12/19 06:58:08;;;;;;;16.77;9.03;;;;;;;-6.02;95.24;102505.72;1735495;78;21949;-46
2022/12/19 07:00:37;;;;;;;15.63;8.45;;;;;;;-6.07;95.35;102500.90;1786487;78;21636;-47
2022/12/19 07:03:05;;;;;;;16.57;8.43;;;;;;;-6.12;95.39;102510.63;1764661;78;21050;-46
2022/12/19 07:05:34;;;;;;;19.85;8.50;;;;;;;-6.18;95.48;102526.19;1766048;79;21394;-37
2022/12/19 07:08:01;;;;;;;19.05;9.48;;;;;;;-6.23;95.62;102522.64;1759383;79;21499;-46
2022/12/19 07:10:29;;;;;;;20.30;10.08;;;;;;;-6.27;96.24;102534.53;1734398;79;21534;-46
2022/12/19 07:12:57;;;;;;;18.05;9.53;;;;;;;-6.26;96.71;102548.73;1758872;79;21416;-37
2022/12/19 07:15:26;;;;;;;18.27;10.03;;;;;;;-6.21;96.97;102558.09;1765933;79;21107;-37
2022/12/19 07:18:31;;;;;;;17.67;9.55;;;;;;;-6.17;97.02;102558.56;1761223;79;21379;-47
2022/12/19 07:21:58;;;;;;;18.45;9.63;;;;;;;-6.10;97.35;102561.74;1749744;79;21076;-38
2022/12/19 07:24:31;;;;;;;22.55;10.28;;;;;;;-5.97;96.47;102556.80;1783837;78;21106;-46
2022/12/19 07:26:58;;;;;;;26.62;11.83;;;;;;;-5.94;95.34;102559.64;1781403;78;21548;-38
2022/12/19 07:29:26;;;;;;;24.63;12.13;;;;;;;-5.96;94.39;102560.25;1757726;79;21157;-47
2022/12/19 07:32:04;;;;;;;20.25;11.20;;;;;;;-6.02;94.43;102568.17;1726519;81;21874;-47
2022/12/19 07:35:21;;;;;;;18.60;9.90;;;;;;;-6.06;94.55;102569.87;1730055;81;21080;-47
2022/12/19 07:38:06;;;;;;;20.82;10.10;;;;;;;-6.07;94.73;102585.02;1722013;81;21523;-47
2022/12/19 07:40:34;;;;;;;18.10;10.88;;;;;;;-6.04;95.29;102584.03;1722983;82;20999;-38
2022/12/19 07:43:04;;;;;;;19.60;10.68;;;;;;;-5.98;95.61;102579.19;1733082;81;20969;-39
2022/12/19 07:45:31;;;;;;;20.55;8.33;;;;;;;-5.90;95.15;102582.50;1695291;81;20969;-38
2022/12/19 07:48:01;;;;;;;18.45;10.43;;;;;;;-5.87;94.46;102577.70;1724264;81;21016;-38
2022/12/19 07:50:28;;;;;;;23.67;12.05;;;;;;;-5.81;94.90;102581.24;1753838;80;21098;-46
2022/12/19 07:52:56;;;;;;;22.30;11.25;;;;;;;-5.72;94.83;102580.92;1726334;81;21784;-47
2022/12/19 07:55:24;;;;;;;18.10;10.23;;;;;;;-5.62;94.68;102582.37;1727665;81;21680;-38
2022/12/19 07:57:52;;;;;;;19.80;9.83;;;;;;;-5.59;94.03;102585.59;1736324;80;21439;-38
2022/12/19 08:00:20;;;;;;;16.05;9.40;;;;;;;-5.59;93.56;102599.63;1736005;80;21432;-46
2022/12/19 08:02:49;;;;;;;14.38;7.50;;;;;;;-5.59;93.37;102591.59;1735363;80;20993;-47
2022/12/19 10:29:20;;;;;;;10.63;7.70;;;;;;;-0.60;78.37;102557.16;1775585;79;24128;-42
2022/12/19 10:32:26;;;;;;;10.82;7.15;;;;;;;-0.55;75.56;102561.91;1735927;80;21156;-41
2022/12/19 10:35:48;;;;;;;11.75;7.72;;;;;;;-0.53;75.68;102560.73;1724992;81;22025;-39
2022/12/19 10:38:51;;;;;;;12.40;7.53;;;;;;;-0.47;74.34;102562.90;1722246;80;21061;-38
2022/12/19 10:42:38;;;;;;;10.88;6.85;;;;;;;-0.55;74.03;102568.72;1724086;80;21120;-49
2022/12/19 10:52:47;;;;;;;9.13;6.12;;;;;;;-0.18;72.18;102565.22;1726771;81;20995;-39
2022/12/19 10:55:43;;;;;;;9.95;6.17;;;;;;;0.07;70.97;102563.81;1724091;81;20995;-50
2022/12/19 10:58:29;;;;;;;11.38;6.60;;;;;;;0.30;70.15;102566.00;1729512;80;21676;-50
2022/12/19 11:01:03;;;;;;;8.95;5.47;;;;;;;0.47;69.21;102566.91;1719988;80;21021;-48
2022/12/19 11:03:32;;;;;;;9.43;5.92;;;;;;;0.63;68.86;102571.12;1729006;80;21081;-46
2022/12/19 11:06:01;;;;;;;10.40;6.20;;;;;;;0.77;67.00;102573.48;1713510;82;20972;-47
2022/12/19 11:08:34;;;;;;;11.05;6.05;;;;;;;0.86;67.27;102580.99;1727371;81;21041;-48
2022/12/19 11:11:07;;;;;;;;;;;;;;;0.92;65.61;102569.46;1729470;81;21424;-38
2022/12/19 11:13:46;;;;;;;10.18;6.53;;;;;;;0.72;65.06;102573.13;1729663;80;20131;-41
2022/12/19 11:16:25;;;;;;;11.63;6.90;;;;;;;0.51;65.67;102576.64;1701919;81;21935;-48
2022/12/19 11:18:52;;;;;;;12.20;7.10;;;;;;;0.35;66.24;102580.09;1709871;81;21367;-40
2022/12/19 11:21:28;;;;;;;10.88;7.25;;;;;;;0.24;67.09;102582.77;1718620;81;21571;-47
2022/12/19 11:24:05;;;;;;;12.90;7.92;;;;;;;0.35;67.51;102580.09;1718926;81;21595;-49
2022/12/19 11:26:45;;;;;;;13.10;6.92;;;;;;;0.40;67.15;102586.11;1711726;81;21081;-41
2022/12/19 11:29:43;;;;;;;11.22;6.83;;;;;;;0.39;67.28;102588.58;1721877;80;21027;-51
2022/12/19 11:32:35;;;;;;;14.30;7.90;;;;;;;0.41;66.88;102597.34;1719236;81;21045;-39
2022/12/19 11:35:05;;;;;;;11.12;7.25;;;;;;;0.45;66.59;102589.05;1721367;81;21532;-49
2022/12/19 11:37:49;;;;;;;12.30;6.83;;;;;;;0.67;66.58;102587.73;1721649;80;21104;-48
2022/12/19 11:40:45;;;;;;;13.78;7.58;;;;;;;0.98;66.76;102582.80;1720358;81;21804;-48
2022/12/19 11:43:36;;;;;;;10.25;7.15;;;;;;;1.21;64.68;102577.17;1718187;81;21480;-48
2022/12/19 11:46:17;;;;;;;11.15;7.87;;;;;;;1.29;64.88;102570.92;1727870;81;20955;-48
2022/12/19 11:48:58;;;;;;;11.78;7.15;;;;;;;1.38;64.42;102579.31;1673444;84;21027;-39
2022/12/19 11:51:36;;;;;;;13.15;7.10;;;;;;;1.32;63.70;102583.63;1665230;84;21341;-39
2022/12/19 11:54:37;;;;;;;10.95;6.92;;;;;;;1.25;63.61;102593.00;1666377;83;21026;-43
2022/12/19 11:57:03;;;;;;;10.30;6.53;;;;;;;1.28;63.67;102591.95;1666528;84;21156;-49
2022/12/19 11:59:35;;;;;;;10.72;6.30;;;;;;;1.44;63.33;102591.37;1650696;85;21021;-47
2022/12/19 12:02:13;;;;;;;12.10;7.03;;;;;;;1.50;62.54;102589.23;1660161;84;21010;-48
